Bei Facebook empfehlenBei Twitter postenGoogle plusPinterest

Das Wetter im Erzgebirge am 19.05.2016

Wetter und Klima am 19.05.2016 Holzhau im Erzgebirge (630m ü.NN)
Letzte gemessene Temperatur und Uhrzeit der Messung23:45:00 Uhr7.50 °C
Temperatur (Maximum / Höchstwert) und Uhrzeit der Messung15:00:00 Uhr19.50 °C
Temperatur (Minimum / Tiefstwert) und Uhrzeit der Messung04:15:003.00 °C
Errechneter Absolutwert der Temperaturschwankungen zwischen Tmin und Tmax des Tages16.50 K
Errechnete Tagesmitteltemperatur12.42500 °C
Gesamt - Niederschlag des Tages (in flüssiger Form)0.00 Liter / m²
Luftdruck (Maximum / Höchstwert) und Zeitpunkt der Messung23:45:00 Uhr1013.00 hPa
Luftdruck (Minimum / Tiefstwert) und Zeitpunkt der Messung04:30:00 Uhr1005.90 hPa
Errechneter Absolutwert der Luftdruckschwankungen des Tages7.10 hPa
Höchste gemessene Windgeschwindigkeit und Uhrzeit der Messung23:45:00 Uhr0.00 km/h
Errechnete Windhäufigkeit in Relation zu den Messwerten des Tages0.00000 %
Niedrigste Windkühle (Windchill) und Zeitpunkt der Messung04:15:00 Uhr3.00 °C
Taupunkt (Maximum / Höchstwert) und Uhrzeit der Messung07:00:00 Uhr8.60 °C
Taupunkt (Minimum / Tiefstwert) und Uhrzeit der Messung04:15:000.70 °C
Anzahl der automatisch eingelesenen Messwerte 96

Detaillierte Wetter- und Klima- Messwerte für den 19.05.2016 in Holzhau im Erzgebirge (630m ü.NN)
ZeitTemperaturLuftdruckRel. LuftfeuchteWindWindrichtungWindchillTaupunktNiederschlag l/m²
23:45:007.50 °C1013.00 hPa81.00 %4.50 °C 
23:30:008.00 °C1012.80 hPa80.00 %4.80 °C 
23:15:008.50 °C1012.80 hPa80.00 %5.30 °C 
23:00:008.80 °C1012.60 hPa80.00 %5.50 °C 
22:45:009.10 °C1012.60 hPa79.00 %5.70 °C 
22:30:009.50 °C1012.30 hPa78.00 %5.90 °C 
22:15:009.90 °C1012.30 hPa77.00 %6.10 °C 
22:00:0010.30 °C1012.10 hPa76.00 %6.30 °C 
21:45:0010.50 °C1012.10 hPa76.00 %6.50 °C 
21:30:0010.80 °C1012.10 hPa75.00 %6.60 °C 
21:15:0010.90 °C1011.90 hPa74.00 %6.50 °C 
21:00:0011.20 °C1011.70 hPa73.00 %6.50 °C 
20:45:0011.40 °C1011.60 hPa72.00 %6.50 °C 
20:30:0011.60 °C1011.50 hPa71.00 %6.50 °C 
20:15:0011.90 °C1011.40 hPa69.00 %6.40 °C 
20:00:0012.30 °C1011.20 hPa68.00 %6.60 °C 
19:45:0012.80 °C1010.80 hPa66.00 %6.60 °C 
19:30:0013.30 °C1010.60 hPa65.00 %6.90 °C 
19:15:0013.80 °C1010.50 hPa63.00 %6.90 °C 
19:00:0014.30 °C1010.30 hPa62.00 %7.10 °C 
18:45:0014.90 °C1010.20 hPa60.00 %7.20 °C 
18:30:0015.30 °C1010.10 hPa58.00 %7.10 °C 
18:15:0015.60 °C1009.90 hPa56.00 %6.90 °C 
18:00:0015.90 °C1009.60 hPa54.00 %6.60 °C 
17:45:0016.10 °C1009.60 hPa51.00 %6.00 °C 
17:30:0016.80 °C1009.60 hPa49.00 %6.00 °C 
17:15:0017.20 °C1009.30 hPa49.00 %6.40 °C 
17:00:0018.20 °C1009.10 hPa48.00 %7.00 °C 
16:45:0018.50 °C1008.90 hPa47.00 %7.00 °C 
16:30:0018.80 °C1009.00 hPa48.00 %7.60 °C 
16:15:0018.80 °C1009.30 hPa47.00 %7.30 °C 
16:00:0018.90 °C1009.20 hPa47.00 %7.40 °C 
15:45:0019.10 °C1009.20 hPa47.00 %7.50 °C 
15:30:0019.30 °C1009.10 hPa46.00 %7.40 °C 
15:15:0019.30 °C1009.00 hPa45.00 %7.10 °C 
15:00:0019.50 °C1008.80 hPa44.00 %6.90 °C 
14:45:0019.40 °C1008.80 hPa45.00 %7.20 °C 
14:30:0019.30 °C1008.60 hPa45.00 %7.10 °C 
14:15:0018.90 °C1008.70 hPa46.00 %7.00 °C 
14:00:0018.80 °C1008.40 hPa48.00 %7.60 °C 
13:45:0018.30 °C1008.50 hPa47.00 %6.80 °C 
13:30:0017.80 °C1008.40 hPa47.00 %6.30 °C 
13:15:0018.10 °C1008.10 hPa47.00 %6.60 °C 
13:00:0019.40 °C1008.10 hPa45.00 %7.20 °C 
12:45:0019.20 °C1008.00 hPa46.00 %7.30 °C 
12:30:0018.90 °C1008.10 hPa47.00 %7.40 °C 
12:15:0018.90 °C1008.00 hPa46.00 %7.00 °C 
12:00:0019.00 °C1008.00 hPa47.00 %7.40 °C 
11:45:0018.80 °C1007.90 hPa47.00 %7.30 °C 
11:30:0018.80 °C1007.90 hPa48.00 %7.60 °C 
11:15:0018.40 °C1007.80 hPa46.00 %6.60 °C 
11:00:0018.50 °C1007.70 hPa48.00 %7.30 °C 
10:45:0018.40 °C1007.30 hPa49.00 %7.50 °C 
10:30:0018.10 °C1007.30 hPa48.00 %6.90 °C 
10:15:0017.80 °C1007.30 hPa50.00 %7.20 °C 
10:00:0017.40 °C1007.30 hPa50.00 %6.90 °C 
09:45:0016.80 °C1006.90 hPa49.00 %6.00 °C 
09:30:0016.70 °C1007.00 hPa51.00 %6.50 °C 
09:15:0016.50 °C1007.00 hPa52.00 %6.60 °C 
09:00:0016.40 °C1006.90 hPa54.00 %7.10 °C 
08:45:0016.10 °C1006.80 hPa56.00 %7.30 °C 
08:30:0015.80 °C1006.70 hPa56.00 %7.00 °C 
08:15:0015.90 °C1006.40 hPa58.00 %7.70 °C 
08:00:0015.40 °C1006.40 hPa59.00 %7.40 °C 
07:45:0015.50 °C1006.40 hPa62.00 %8.30 °C 
07:30:0014.90 °C1006.30 hPa64.00 %8.20 °C 
07:15:0014.50 °C1006.10 hPa67.00 %8.50 °C 
07:00:0013.80 °C1006.30 hPa71.00 %8.60 °C 
06:45:0012.40 °C1006.20 hPa74.00 %7.90 °C 
06:30:0011.60 °C1006.20 hPa78.00 %7.90 °C 
06:15:009.90 °C1006.10 hPa83.00 %7.20 °C 
06:00:007.10 °C1006.10 hPa85.00 %4.80 °C 
05:45:005.90 °C1006.10 hPa86.00 %3.70 °C 
05:30:005.10 °C1006.10 hPa86.00 %3.00 °C 
05:15:004.50 °C1006.00 hPa86.00 %2.40 °C 
05:00:004.10 °C1006.00 hPa86.00 %2.00 °C 
04:45:003.50 °C1006.00 hPa86.00 %1.40 °C 
04:30:003.10 °C1005.90 hPa85.00 %0.80 °C 
04:15:003.00 °C1005.90 hPa85.00 %0.70 °C 
04:00:003.40 °C1006.10 hPa84.00 %1.00 °C 
03:45:003.80 °C1006.00 hPa85.00 %1.50 °C 
03:30:004.10 °C1006.00 hPa85.00 %1.80 °C 
03:15:004.10 °C1006.00 hPa85.00 %1.80 °C 
03:00:003.80 °C1006.10 hPa85.00 %1.50 °C 
02:45:003.90 °C1006.10 hPa85.00 %1.60 °C 
02:30:003.90 °C1006.20 hPa85.00 %1.60 °C 
02:15:003.70 °C1006.40 hPa85.00 %1.40 °C 
02:00:003.60 °C1006.30 hPa85.00 %1.30 °C 
01:45:003.40 °C1006.60 hPa84.00 %1.00 °C 
01:30:003.40 °C1006.60 hPa84.00 %1.00 °C 
01:15:003.60 °C1006.60 hPa84.00 %1.20 °C 
01:00:003.60 °C1006.70 hPa83.00 %1.00 °C 
00:45:003.80 °C1006.70 hPa83.00 %1.20 °C 
00:30:003.80 °C1006.70 hPa83.00 %1.20 °C 
00:15:003.80 °C1006.80 hPa82.00 %1.00 °C 
00:00:003.80 °C1006.90 hPa82.00 %1.00 °C 

Permanenter Link zu dieser Seite: Wetter im Erzgebirge am 19.05.2016
Performance-Info: Die Erstellung der Seite / Statistik(en) / Tabelle(n) erforderte 5 Datenbankserver-Abfrage(n) und dauerte 102 Millisekunden. (Dieser Messwert ist von der Gesamt-Auslastung des Servers abhängig.)
Erzgebirge - Wetter | Erzgebirge - Wetter (Mobilgeräte) | Komplette Klimadatenbank